Time;durP1;ratioP1;P1;durP2;ratioP2;P2;SDS_P1;SDS_P2;PMS_P1;PMS_P2;Temp;Humidity;BMP_temperature;BMP_pressure;BME280_temperature;BME280_humidity;BME280_pressure;Samples;Min_cycle;Max_cycle;Signal;HPM_P1;HPM_P2
2022/09/23 00:00:36;;;;;;;9.10;4.60;;;9.70;99.90;;;;;;5075381;28;20039;-87
2022/09/23 00:03:02;;;;;;;8.13;4.70;;;12.40;99.90;;;;;;5076930;28;20043;-85
2022/09/23 00:05:29;;;;;;;14.10;5.15;;;9.60;99.90;;;;;;5075537;28;20393;-84
2022/09/23 00:07:56;;;;;;;9.45;4.53;;;9.60;99.90;;;;;;5075831;28;20051;-85
2022/09/23 00:10:23;;;;;;;6.75;4.68;;;9.50;99.90;;;;;;5057996;28;20486;-82
2022/09/23 00:12:49;;;;;;;9.15;4.10;;;9.50;99.90;;;;;;5070423;28;20036;-83
2022/09/23 00:15:16;;;;;;;8.65;4.15;;;9.50;99.90;;;;;;5090499;28;20089;-82
2022/09/23 00:17:42;;;;;;;10.18;4.80;;;9.50;99.90;;;;;;5074956;28;20028;-84
2022/09/23 00:20:08;;;;;;;7.18;4.18;;;9.50;99.90;;;;;;5073641;28;20032;-85
2022/09/23 00:22:35;;;;;;;7.70;4.20;;;9.50;99.90;;;;;;5089413;28;20080;-84
2022/09/23 00:25:05;;;;;;;7.35;4.10;;;9.50;99.90;;;;;;5066681;28;20030;-82
2022/09/23 00:27:32;;;;;;;9.45;4.30;;;;;;;;;;5087491;28;20020;-84
2022/09/23 00:29:58;;;;;;;7.50;4.60;;;;;;;;;;5076199;28;20024;-87
2022/09/23 00:32:25;;;;;;;8.88;4.57;;;;;;;;;;5074359;28;20405;-86
2022/09/23 00:34:51;;;;;;;10.27;4.40;;;;;;;;;;5074016;28;20028;-85
2022/09/23 00:37:17;;;;;;;8.93;4.35;;;;;;;;;;5081214;28;20028;-86
2022/09/23 00:39:44;;;;;;;8.32;4.13;;;;;;;;;;5087418;28;20032;-86
2022/09/23 00:42:19;;;;;;;7.57;4.13;;;9.40;99.90;;;;;;5088399;28;20026;-85
2022/09/23 00:44:55;;;;;;;8.60;3.75;;;9.40;99.90;;;;;;5080337;28;20035;-86
2022/09/23 00:47:24;;;;;;;7.47;4.07;;;9.40;99.90;;;;;;5072756;28;20035;-82
2022/09/23 00:50:07;;;;;;;6.55;4.13;;;9.40;99.90;;;;;;5072474;28;20090;-85
2022/09/23 00:52:34;;;;;;;8.40;4.13;;;;;;;;;;5074374;28;20507;-85
2022/09/23 00:55:05;;;;;;;7.88;3.88;;;9.40;99.90;;;;;;5087230;28;20024;-86
2022/09/23 00:57:31;;;;;;;7.80;4.20;;;;;;;;;;5067483;28;20131;-83
2022/09/23 00:59:57;;;;;;;9.02;4.10;;;;;;;;;;5089414;28;20024;-88
2022/09/23 01:02:23;;;;;;;6.60;4.05;;;;;;;;;;5074384;28;20016;-85
2022/09/23 01:04:49;;;;;;;5.50;3.78;;;;;;;;;;5073873;28;20036;-85
2022/09/23 01:07:16;;;;;;;5.38;3.92;;;;;;;;;;5075403;28;20046;-86
2022/09/23 01:09:42;;;;;;;6.55;3.92;;;;;;;;;;5073312;28;20052;-83
2022/09/23 01:12:11;;;;;;;8.60;4.50;;;;;;;;;;5071046;28;20024;-90
2022/09/23 01:14:53;;;;;;;7.07;3.83;;;9.40;99.90;;;;;;5072279;28;20065;-81
2022/09/23 01:17:41;;;;;;;6.65;3.80;;;9.40;99.90;;;;;;5066578;28;20186;-85
2022/09/23 01:20:26;;;;;;;6.18;3.90;;;;;;;;;;5086904;28;20031;-85
2022/09/23 01:23:19;;;;;;;6.97;4.05;;;9.30;99.90;;;;;;5069133;28;20030;-85
2022/09/23 01:26:22;;;;;;;7.90;3.90;;;9.30;99.90;;;;;;5071612;28;20028;-85
2022/09/23 01:28:54;;;;;;;9.77;3.80;;;9.30;99.90;;;;;;5070642;28;20024;-85
2022/09/23 01:31:54;;;;;;;6.82;3.85;;;9.20;99.90;;;;;;5069529;28;20048;-86
2022/09/23 01:34:44;;;;;;;6.82;3.95;;;9.20;99.90;;;;;;5091782;28;20006;-90
2022/09/23 01:37:19;;;;;;;8.25;3.78;;;9.20;99.90;;;;;;5109328;27;20024;-86
2022/09/23 01:40:10;;;;;;;7.43;4.20;;;9.20;99.90;;;;;;5090320;28;20123;-86
2022/09/23 01:42:59;;;;;;;7.22;3.90;;;10.40;99.90;;;;;;5079475;28;20085;-87
2022/09/23 01:45:24;;;;;;;8.55;4.13;;;;;;;;;;5071037;28;20035;-87
2022/09/23 01:47:55;;;;;;;6.18;4.00;;;9.20;99.90;;;;;;5071669;28;20032;-84
2022/09/23 01:53:38;;;;;;;7.25;3.45;;;9.20;99.90;;;;;;5102246;28;20520;-83
2022/09/23 01:56:21;;;;;;;10.40;5.10;;;9.10;99.90;;;;;;5080111;28;20047;-84
2022/09/23 01:58:47;;;;;;;8.52;4.25;;;;;;;;;;5075230;28;20081;-85
2022/09/23 02:01:18;;;;;;;6.00;3.88;;;9.10;99.90;;;;;;5074835;28;20024;-83
2022/09/23 02:04:03;;;;;;;6.60;3.60;;;9.00;99.90;;;;;;5094123;28;20016;-83
2022/09/23 02:07:00;;;;;;;6.60;3.40;;;9.10;99.90;;;;;;5091751;28;20032;-82
2022/09/23 02:09:34;;;;;;;12.25;4.22;;;9.10;99.90;;;;;;5062446;28;20047;-84
2022/09/23 02:12:04;;;;;;;5.72;3.88;;;9.10;99.90;;;;;;5070662;28;20032;-86
2022/09/23 02:14:39;;;;;;;7.47;3.83;;;9.10;99.90;;;;;;5071606;28;20032;-85
2022/09/23 02:17:13;;;;;;;6.60;3.90;;;;;;;;;;5076114;28;20029;-86
2022/09/23 02:19:42;;;;;;;7.55;4.35;;;;;;;;;;5068767;28;20036;-82
2022/09/23 02:22:42;;;;;;;8.63;3.85;;;9.10;99.90;;;;;;5093914;28;20031;-85
2022/09/23 02:25:11;;;;;;;6.05;3.65;;;9.00;99.90;;;;;;5094255;28;20016;-85
2022/09/23 02:27:53;;;;;;;8.02;3.83;;;9.00;99.90;;;;;;5092663;28;20032;-82
2022/09/23 02:30:30;;;;;;;6.85;4.05;;;8.90;99.90;;;;;;5090829;28;20033;-84
2022/09/23 02:32:59;;;;;;;7.43;3.63;;;;;;;;;;5072506;28;20032;-82
2022/09/23 02:35:31;;;;;;;7.35;3.97;;;;;;;;;;5078133;28;20087;-84
2022/09/23 02:38:22;;;;;;;6.32;3.50;;;8.90;99.90;;;;;;5089387;28;20066;-83
2022/09/23 02:41:13;;;;;;;6.40;3.63;;;8.90;99.90;;;;;;5075872;28;20050;-83
2022/09/23 02:43:52;;;;;;;6.32;3.70;;;8.90;99.90;;;;;;5076416;28;20035;-85
2022/09/23 02:46:19;;;;;;;7.28;3.88;;;;;;;;;;5075189;28;20020;-83
2022/09/23 02:48:55;;;;;;;6.18;3.75;;;8.90;99.90;;;;;;5075912;28;20028;-83
2022/09/23 02:51:24;;;;;;;8.90;3.72;;;;;;;;;;5072055;28;20092;-81
2022/09/23 02:53:51;;;;;;;5.97;3.72;;;;;;;;;;5089761;28;20027;-86
2022/09/23 02:56:20;;;;;;;5.88;3.53;;;;;;;;;;5072489;28;20032;-85
2022/09/23 02:58:48;;;;;;;6.38;4.10;;;8.80;99.90;;;;;;5090392;28;20024;-83
2022/09/23 03:01:32;;;;;;;9.57;4.85;;;8.80;99.90;;;;;;5072426;28;20028;-83
2022/09/23 03:04:11;;;;;;;6.63;3.95;;;8.80;99.90;;;;;;5088553;28;20024;-83
2022/09/23 03:06:45;;;;;;;6.90;4.00;;;8.80;99.90;;;;;;5075643;28;20074;-83
2022/09/23 03:09:17;;;;;;;9.07;4.00;;;;;;;;;;5078545;28;20494;-86
2022/09/23 03:11:49;;;;;;;6.22;4.00;;;8.80;99.90;;;;;;5094752;28;20016;-89
2022/09/23 03:14:39;;;;;;;6.30;3.45;;;8.80;99.90;;;;;;5091155;28;20379;-89
2022/09/23 03:17:14;;;;;;;8.30;3.28;;;8.70;99.90;;;;;;5095143;28;20028;-85
2022/09/23 03:19:50;;;;;;;8.27;3.90;;;8.70;99.90;;;;;;5082136;28;20028;-87
2022/09/23 03:22:28;;;;;;;7.63;3.95;;;8.60;99.90;;;;;;5089134;28;20028;-83
2022/09/23 03:24:58;;;;;;;7.85;3.95;;;8.60;99.90;;;;;;5088932;28;20020;-85
2022/09/23 03:27:26;;;;;;;;;;;8.60;99.90;;;;;;5092561;28;20030;-86
2022/09/23 03:29:53;;;;;;;7.20;3.70;;;8.60;99.90;;;;;;5091019;28;19908;-88
2022/09/23 03:32:23;;;;;;;5.65;3.78;;;8.60;99.90;;;;;;5075343;28;20066;-87
2022/09/23 03:34:52;;;;;;;10.17;3.97;;;8.60;99.90;;;;;;5075164;28;20146;-83
2022/09/23 03:37:32;;;;;;;8.10;3.90;;;8.50;99.90;;;;;;5077088;28;20028;-82
2022/09/23 03:40:03;;;;;;;8.52;3.67;;;8.50;99.90;;;;;;5070108;28;20024;-82
2022/09/23 03:42:32;;;;;;;8.02;4.25;;;8.50;99.90;;;;;;5068441;28;20024;-85
2022/09/23 03:44:58;;;;;;;6.95;3.80;;;8.50;99.90;;;;;;5079218;28;20020;-85
2022/09/23 03:47:25;;;;;;;8.50;3.90;;;8.30;99.90;;;;;;5087360;28;20024;-83
2022/09/23 03:49:52;;;;;;;6.38;3.90;;;9.50;99.90;;;;;;5070672;28;20432;-87
2022/09/23 03:52:20;;;;;;;5.72;4.18;;;8.50;99.90;;;;;;5071210;28;20063;-83
2022/09/23 03:54:46;;;;;;;9.43;5.25;;;;;;;;;;5077340;28;20024;-82
2022/09/23 03:57:13;;;;;;;10.70;5.30;;;8.40;99.90;;;;;;5093926;28;20481;-81
2022/09/23 03:59:39;;;;;;;9.77;6.10;;;;;;;;;;5053371;28;20158;-84
2022/09/23 04:02:06;;;;;;;11.27;6.15;;;;;;;;;;5087732;28;20027;-81
2022/09/23 04:04:34;;;;;;;11.30;6.10;;;8.30;99.90;;;;;;5071297;28;20024;-83
2022/09/23 04:07:00;;;;;;;7.47;5.00;;;;;;;;;;5089452;28;20031;-84
2022/09/23 04:09:26;;;;;;;8.65;3.97;;;;;;;;;;5071571;28;20028;-81
2022/09/23 04:11:53;;;;;;;9.07;3.80;;;;;;;;;;5070010;28;20047;-85
2022/09/23 04:14:20;;;;;;;5.97;3.55;;;8.20;99.90;;;;;;5087585;28;20039;-86
2022/09/23 04:16:49;;;;;;;6.35;4.03;;;8.30;99.90;;;;;;5084510;28;20028;-86
2022/09/23 04:19:15;;;;;;;7.53;4.30;;;;;;;;;;5087079;28;20029;-84
2022/09/23 04:21:42;;;;;;;5.50;3.58;;;8.20;99.90;;;;;;5071839;28;20055;-85
2022/09/23 04:24:09;;;;;;;9.75;3.92;;;8.20;99.90;;;;;;5069377;28;20047;-84
2022/09/23 04:26:35;;;;;;;6.95;4.35;;;8.20;99.90;;;;;;5075467;28;20119;-87
2022/09/23 04:29:03;;;;;;;7.20;4.15;;;;;;;;;;5090858;28;20103;-85
2022/09/23 04:31:30;;;;;;;7.38;4.22;;;8.20;99.90;;;;;;5067737;28;20474;-85
2022/09/23 04:33:56;;;;;;;5.60;4.13;;;;;;;;;;5063499;28;20114;-83
2022/09/23 04:36:22;;;;;;;6.85;3.80;;;;;;;;;;5065096;28;20541;-85
2022/09/23 04:38:48;;;;;;;6.00;4.10;;;8.20;99.90;;;;;;5069374;28;20431;-84
2022/09/23 04:41:14;;;;;;;7.55;4.43;;;8.20;99.90;;;;;;5086283;28;20024;-84
2022/09/23 04:43:41;;;;;;;5.88;3.88;;;;;;;;;;5065415;28;20450;-83
2022/09/23 04:46:09;;;;;;;8.55;4.20;;;8.20;99.90;;;;;;5086447;28;20044;-87
2022/09/23 04:48:36;;;;;;;7.47;4.40;;;8.20;99.90;;;;;;5068238;28;20067;-82
2022/09/23 04:51:10;;;;;;;8.68;4.30;;;8.10;99.90;;;;;;5089492;28;20024;-85
2022/09/23 04:53:38;;;;;;;6.80;4.00;;;8.20;99.90;;;;;;5087892;28;20032;-86
2022/09/23 04:56:13;;;;;;;7.25;4.15;;;8.20;99.90;;;;;;5073292;28;20028;-84
2022/09/23 04:58:40;;;;;;;7.97;4.07;;;8.10;99.90;;;;;;5074169;28;20071;-82
2022/09/23 05:01:10;;;;;;;7.28;4.30;;;8.80;99.90;;;;;;5073146;28;20016;-86
2022/09/23 05:03:36;;;;;;;11.02;4.70;;;;;;;;;;5084664;28;20063;-80
2022/09/23 05:06:02;;;;;;;10.05;4.47;;;;;;;;;;5065989;28;20056;-85
2022/09/23 05:08:28;;;;;;;10.32;5.70;;;;;;;;;;5070252;28;20077;-81
2022/09/23 05:10:58;;;;;;;6.18;4.10;;;;;;;;;;5072394;28;20028;-82
2022/09/23 05:13:24;;;;;;;7.70;4.10;;;;;;;;;;5066653;28;20037;-84
2022/09/23 05:15:57;;;;;;;6.65;4.30;;;8.00;99.90;;;;;;5083150;28;20119;-84
2022/09/23 05:18:23;;;;;;;7.88;4.32;;;;;;;;;;5081660;28;20088;-84
2022/09/23 05:20:54;;;;;;;7.35;3.92;;;8.00;99.90;;;;;;5064693;28;20784;-80
2022/09/23 05:23:20;;;;;;;7.10;4.47;;;;;;;;;;5068981;28;20028;-82
2022/09/23 05:25:47;;;;;;;7.78;4.35;;;;;;;;;;5075843;28;20066;-83
2022/09/23 05:28:18;;;;;;;6.97;4.72;;;;;;;;;;5074554;28;20018;-78
2022/09/23 05:30:44;;;;;;;8.10;4.43;;;;;;;;;;5092067;28;20254;-78
2022/09/23 05:33:11;;;;;;;8.93;4.57;;;;;;;;;;5081364;28;20101;-79
2022/09/23 05:35:37;;;;;;;9.30;5.18;;;;;;;;;;5074718;28;20469;-79
2022/09/23 05:38:03;;;;;;;11.00;5.07;;;;;;;;;;5073837;28;20028;-78
2022/09/23 05:40:29;;;;;;;9.55;5.82;;;;;;;;;;5077265;28;20020;-79
2022/09/23 05:42:58;;;;;;;13.10;6.35;;;;;;;;;;5070712;28;20060;-81
2022/09/23 05:45:24;;;;;;;10.10;5.97;;;;;;;;;;5087453;28;20016;-84
2022/09/23 05:47:50;;;;;;;11.45;7.10;;;;;;;;;;5096587;28;20028;-84
2022/09/23 05:50:16;;;;;;;12.48;7.97;;;;;;;;;;5098402;28;20031;-86
2022/09/23 05:52:42;;;;;;;11.50;6.88;;;;;;;;;;5092408;28;20492;-87
2022/09/23 05:55:10;;;;;;;13.55;7.88;;;;;;;;;;5091401;28;20059;-84
2022/09/23 05:57:36;;;;;;;16.27;8.75;;;;;;;;;;5092665;28;20035;-83
2022/09/23 06:00:03;;;;;;;14.10;8.18;;;8.00;99.90;;;;;;5073239;28;20039;-82
2022/09/23 06:02:29;;;;;;;12.48;8.02;;;;;;;;;;5086552;28;20373;-83
2022/09/23 06:04:55;;;;;;;14.32;8.63;;;;;;;;;;5073793;28;20020;-85
2022/09/23 06:07:21;;;;;;;12.88;8.05;;;;;;;;;;5075323;28;20035;-83
2022/09/23 06:09:47;;;;;;;14.48;8.13;;;;;;;;;;5077644;28;20052;-82
2022/09/23 06:12:13;;;;;;;15.52;8.27;;;;;;;;;;5086759;28;20032;-85
2022/09/23 06:14:39;;;;;;;14.45;8.52;;;;;;;;;;5073258;28;20044;-81
2022/09/23 06:17:05;;;;;;;15.23;8.40;;;;;;;;;;5077245;28;20032;-81
2022/09/23 06:19:31;;;;;;;13.52;7.85;;;;;;;;;;5076200;28;20032;-84
2022/09/23 06:21:57;;;;;;;14.23;7.75;;;;;;;;;;5092448;28;20020;-86
2022/09/23 06:24:23;;;;;;;13.20;7.28;;;;;;;;;;5081007;28;20092;-83
2022/09/23 06:26:49;;;;;;;13.45;7.70;;;;;;;;;;5075977;28;20047;-83
2022/09/23 06:29:17;;;;;;;14.88;8.40;;;;;;;;;;5089585;28;20393;-87
2022/09/23 06:31:43;;;;;;;17.70;8.75;;;;;;;;;;5088206;28;20039;-86
2022/09/23 06:34:10;;;;;;;15.20;8.20;;;8.40;99.90;;;;;;5090359;28;20050;-81
2022/09/23 06:36:36;;;;;;;16.10;8.70;;;;;;;;;;5068146;28;20034;-86
2022/09/23 06:39:02;;;;;;;15.68;7.57;;;;;;;;;;5074229;28;20671;-82
2022/09/23 06:41:29;;;;;;;16.58;7.65;;;;;;;;;;5066390;28;20033;-85
2022/09/23 06:43:55;;;;;;;12.73;6.57;;;;;;;;;;5082234;28;20027;-85
2022/09/23 06:46:21;;;;;;;14.57;7.28;;;;;;;;;;5071338;28;20029;-83
2022/09/23 06:48:47;;;;;;;12.98;6.38;;;;;;;;;;5069603;28;20039;-87
2022/09/23 06:51:18;;;;;;;8.80;5.82;;;;;;;;;;5082871;28;20028;-86
2022/09/23 06:53:45;;;;;;;10.95;5.35;;;8.90;99.90;;;;;;5094863;28;20020;-85
2022/09/23 06:56:11;;;;;;;11.60;5.63;;;;;;;;;;5072980;28;20131;-83
2022/09/23 06:58:38;;;;;;;14.05;5.95;;;;;;;;;;5085521;28;20028;-81
2022/09/23 07:01:09;;;;;;;8.57;5.90;;;9.00;99.90;;;;;;5073461;28;20061;-84
2022/09/23 07:03:35;;;;;;;12.45;6.00;;;;;;;;;;5075956;28;20029;-84
2022/09/23 07:06:01;;;;;;;9.80;6.03;;;;;;;;;;5093055;28;20024;-84
2022/09/23 07:08:29;;;;;;;12.20;5.60;;;9.10;99.90;;;;;;5088203;28;20040;-85
2022/09/23 07:10:57;;;;;;;11.52;5.75;;;9.10;99.90;;;;;;5064845;28;20766;-82
2022/09/23 07:13:23;;;;;;;9.75;5.45;;;;;;;;;;5054710;28;20043;-88
2022/09/23 07:15:55;;;;;;;9.48;5.57;;;9.30;99.90;;;;;;5068154;28;20034;-82
2022/09/23 07:18:24;;;;;;;9.40;5.57;;;9.30;99.90;;;;;;5082249;28;20497;-81
2022/09/23 07:20:50;;;;;;;13.40;5.40;;;;;;;;;;5068259;28;20066;-82
2022/09/23 07:23:17;;;;;;;9.40;4.88;;;;;;;;;;5067334;28;20056;-82
2022/09/23 07:25:49;;;;;;;9.85;5.72;;;9.50;99.90;;;;;;5071624;28;20489;-83
2022/09/23 07:28:15;;;;;;;14.02;5.88;;;;;;;;;;5089280;28;20435;-84
2022/09/23 07:30:42;;;;;;;10.88;5.65;;;;;;;;;;5068597;28;20032;-83
2022/09/23 07:33:08;;;;;;;12.07;5.97;;;;;;;;;;5089524;28;20047;-84
2022/09/23 07:35:39;;;;;;;10.88;5.85;;;9.90;99.90;;;;;;5066760;28;20036;-82
2022/09/23 07:38:05;;;;;;;10.30;5.60;;;;;;;;;;5075957;28;20053;-82
2022/09/23 07:40:31;;;;;;;10.35;5.88;;;;;;;;;;5069454;28;20520;-81
2022/09/23 07:42:58;;;;;;;12.70;5.78;;;;;;;;;;5072564;28;20034;-82
2022/09/23 07:45:26;;;;;;;10.32;5.72;;;;;;;;;;5085281;28;20124;-84
2022/09/23 07:47:52;;;;;;;10.77;5.97;;;;;;;;;;5086473;28;20489;-82
2022/09/23 07:50:18;;;;;;;11.75;6.10;;;;;;;;;;5065573;28;20032;-82
2022/09/23 07:52:44;;;;;;;10.30;5.50;;;;;;;;;;5073194;28;20379;-86
2022/09/23 07:55:10;;;;;;;13.35;6.32;;;;;;;;;;5068587;28;20047;-86
2022/09/23 07:57:36;;;;;;;10.93;5.30;;;;;;;;;;5082060;28;20027;-83
2022/09/23 08:00:03;;;;;;;13.52;7.35;;;;;;;;;;5071587;28;20024;-79
2022/09/23 08:02:30;;;;;;;8.63;5.47;;;;;;;;;;5068077;28;20102;-81
2022/09/23 08:04:56;;;;;;;9.60;6.00;;;;;;;;;;5072700;28;20043;-83
2022/09/23 08:07:22;;;;;;;8.48;4.80;;;;;;;;;;5072721;28;20058;-82
2022/09/23 08:09:48;;;;;;;9.73;5.43;;;;;;;;;;5053844;28;20040;-83
2022/09/23 08:12:16;;;;;;;9.32;4.82;;;11.60;99.90;;;;;;5086500;28;20027;-83
2022/09/23 08:14:42;;;;;;;7.55;4.03;;;11.70;99.90;;;;;;5068768;28;20031;-79
2022/09/23 08:17:08;;;;;;;8.18;4.43;;;;;;;;;;5077102;28;20023;-85
2022/09/23 08:19:34;;;;;;;8.80;4.40;;;;;;;;;;5085592;28;20024;-85
2022/09/23 08:22:00;;;;;;;8.07;4.38;;;;;;;;;;5080044;28;20079;-83
2022/09/23 08:24:26;;;;;;;11.13;4.85;;;;;;;;;;5091120;28;20020;-84
2022/09/23 08:26:53;;;;;;;10.23;4.85;;;12.20;99.90;;;;;;5074361;28;20155;-80
2022/09/23 08:29:21;;;;;;;5.68;3.85;;;12.30;99.90;;;;;;5090207;28;20027;-83
2022/09/23 08:31:48;;;;;;;5.88;4.03;;;12.30;99.90;;;;;;5074485;28;20028;-84
2022/09/23 08:34:14;;;;;;;6.88;3.85;;;;;;;;;;5088652;28;20481;-85
2022/09/23 08:36:40;;;;;;;6.10;3.80;;;;;;;;;;5091165;28;20032;-83
2022/09/23 08:39:06;;;;;;;9.45;4.07;;;;;;;;;;5069292;28;20090;-83
2022/09/23 08:42:02;;;;;;;6.40;4.13;;;12.80;99.90;;;;;;5090860;28;20051;-84
2022/09/23 08:44:32;;;;;;;7.15;4.35;;;;;;;;;;5059561;28;20040;-88
2022/09/23 08:47:14;;;;;;;6.32;3.90;;;13.10;99.90;;;;;;5077616;28;20020;-81
2022/09/23 08:50:05;;;;;;;12.27;4.40;;;15.80;99.90;;;;;;5090110;28;20028;-84
2022/09/23 08:52:43;;;;;;;;;;;13.30;99.90;;;;;;5090824;28;20032;-80
2022/09/23 08:55:13;;;;;;;7.97;3.72;;;13.60;99.90;;;;;;5076891;28;19908;-82
2022/09/23 08:57:39;;;;;;;;;;;13.80;99.90;;;;;;5074368;28;20035;-82
2022/09/23 09:00:05;;;;;;;7.47;3.97;;;15.70;99.90;;;;;;5097670;28;19975;-80
2022/09/23 09:02:34;;;;;;;6.47;3.85;;;14.10;99.90;;;;;;5077092;28;20028;-83
2022/09/23 09:05:05;;;;;;;6.65;3.83;;;14.00;99.90;;;;;;5072718;28;20016;-87
2022/09/23 09:07:36;;;;;;;10.93;4.80;;;14.10;99.90;;;;;;5074820;28;20043;-85
2022/09/23 09:10:29;;;;;;;9.02;4.05;;;14.30;99.90;;;;;;5074846;28;20024;-79
2022/09/23 09:13:09;;;;;;;7.10;4.00;;;14.20;99.90;;;;;;5088982;28;20032;-80
2022/09/23 09:15:41;;;;;;;;;;;14.10;99.90;;;;;;5073677;28;20028;-84
2022/09/23 09:18:21;;;;;;;7.95;3.70;;;14.20;99.90;;;;;;5058947;28;19916;-81
2022/09/23 09:20:58;;;;;;;6.57;3.88;;;14.60;99.90;;;;;;5071062;28;20032;-85
2022/09/23 09:23:42;;;;;;;14.65;3.92;;;14.60;99.90;;;;;;5092538;28;20030;-80
2022/09/23 09:26:15;;;;;;;6.95;3.63;;;15.30;99.90;;;;;;5060407;28;20028;-82
2022/09/23 09:28:42;;;;;;;5.80;3.50;;;14.90;99.90;;;;;;5074690;28;20032;-86
2022/09/23 09:31:13;;;;;;;7.03;3.95;;;15.10;99.90;;;;;;5073629;28;20028;-87
2022/09/23 09:34:00;;;;;;;6.63;4.07;;;15.20;99.90;;;;;;5077790;28;20095;-88
2022/09/23 09:36:42;;;;;;;7.07;3.97;;;15.30;99.90;;;;;;5091498;28;20024;-86
2022/09/23 09:39:12;;;;;;;6.93;3.55;;;15.60;99.90;;;;;;5084467;28;20082;-83
2022/09/23 09:41:42;;;;;;;8.15;3.75;;;15.60;99.90;;;;;;5090661;28;20028;-80
2022/09/23 09:44:23;;;;;;;7.78;4.20;;;15.60;99.90;;;;;;5068606;28;20033;-81
2022/09/23 09:46:48;;;;;;;6.90;4.18;;;15.70;99.90;;;;;;5075016;28;20020;-84
2022/09/23 09:49:42;;;;;;;6.47;3.72;;;16.20;99.90;;;;;;5079605;28;20077;-84
2022/09/23 09:52:28;;;;;;;6.85;3.75;;;15.80;99.90;;;;;;5090216;28;20039;-83
2022/09/23 09:55:12;;;;;;;5.85;3.80;;;15.90;99.90;;;;;;5093204;28;20038;-82
2022/09/23 09:57:43;;;;;;;9.43;4.47;;;16.30;99.90;;;;;;5093273;28;20407;-82
2022/09/23 10:00:20;;;;;;;6.45;3.85;;;17.30;99.90;;;;;;5092299;28;20042;-84
2022/09/23 10:02:54;;;;;;;6.22;3.53;;;16.50;99.90;;;;;;5088619;28;20027;-83
2022/09/23 10:05:46;;;;;;;12.07;6.28;;;16.70;99.90;;;;;;5088940;28;20074;-82
2022/09/23 10:08:18;;;;;;;8.05;4.32;;;16.80;99.90;;;;;;5088272;28;20051;-85
2022/09/23 10:11:16;;;;;;;5.95;3.60;;;16.90;99.90;;;;;;5090527;28;20635;-83
2022/09/23 10:14:04;;;;;;;7.80;4.20;;;16.90;99.90;;;;;;5085065;28;20039;-84
2022/09/23 10:16:33;;;;;;;7.47;3.72;;;16.90;99.90;;;;;;5051503;28;20040;-85
2022/09/23 10:19:00;;;;;;;6.55;3.75;;;17.00;99.90;;;;;;5078019;28;20027;-80
2022/09/23 10:21:36;;;;;;;6.13;3.83;;;17.00;99.90;;;;;;5094016;28;20087;-84
2022/09/23 10:24:04;;;;;;;7.82;4.07;;;;;;;;;;5092336;28;20031;-84
2022/09/23 10:26:50;;;;;;;8.63;3.88;;;17.00;99.90;;;;;;5071936;28;20032;-86
2022/09/23 10:29:29;;;;;;;6.00;3.78;;;17.10;99.90;;;;;;5065563;28;20042;-86
2022/09/23 10:32:24;;;;;;;7.05;4.20;;;17.10;99.90;;;;;;5074279;28;20166;-80
2022/09/23 10:35:12;;;;;;;8.80;3.90;;;17.20;99.90;;;;;;5091252;28;21112;-82
2022/09/23 10:37:39;;;;;;;7.50;3.80;;;17.40;99.90;;;;;;5071810;28;20028;-80
2022/09/23 10:49:12;;;;;;;8.00;3.60;;;17.60;99.80;;;;;;5086279;28;20465;-82
2022/09/23 10:51:42;;;;;;;7.82;3.60;;;;;;;;;;5075367;28;20028;-82
2022/09/23 10:54:29;;;;;;;5.97;3.10;;;17.90;99.20;;;;;;5093217;28;20049;-82
2022/09/23 10:57:36;;;;;;;6.50;3.22;;;18.00;98.10;;;;;;5094527;28;20031;-82
2022/09/23 10:59:57;;;;;;;5.28;3.13;;;18.00;98.30;;;;;;5089396;28;20023;-83
2022/09/23 11:02:37;;;;;;;7.25;3.03;;;18.50;97.70;;;;;;5091552;28;20024;-84
2022/09/23 11:05:26;;;;;;;5.53;3.40;;;18.50;97.80;;;;;;5089917;28;20081;-83
2022/09/23 11:08:08;;;;;;;6.55;2.88;;;18.90;96.20;;;;;;5064790;28;20032;-83
2022/09/23 11:11:02;;;;;;;7.80;2.70;;;19.10;95.50;;;;;;5077951;28;20039;-86
2022/09/23 11:13:50;;;;;;;5.03;2.80;;;19.20;95.40;;;;;;5074776;28;20059;-80
2022/09/23 11:16:37;;;;;;;8.18;3.05;;;19.20;95.60;;;;;;5092407;28;20477;-80
2022/09/23 11:19:09;;;;;;;6.10;2.63;;;19.50;93.90;;;;;;5069671;28;20024;-81
2022/09/23 11:21:43;;;;;;;5.05;2.13;;;19.60;94.00;;;;;;5076350;28;20020;-82
2022/09/23 11:24:28;;;;;;;5.45;2.20;;;19.50;93.60;;;;;;5073405;28;20028;-84
2022/09/23 11:27:30;;;;;;;6.15;2.55;;;19.50;93.60;;;;;;5083934;28;20020;-81
2022/09/23 11:30:15;;;;;;;6.60;2.70;;;19.40;93.40;;;;;;5073173;28;20075;-83
2022/09/23 11:33:01;;;;;;;4.82;2.20;;;19.50;93.50;;;;;;5073031;28;20049;-84
2022/09/23 11:35:48;;;;;;;4.70;2.15;;;19.50;93.00;;;;;;5078284;28;20032;-81
2022/09/23 11:38:24;;;;;;;6.10;2.10;;;19.50;93.30;;;;;;5086907;28;20028;-80
2022/09/23 11:40:55;;;;;;;4.20;2.40;;;19.40;92.50;;;;;;5076443;28;20032;-80
2022/09/23 11:43:22;;;;;;;;;;;19.50;92.80;;;;;;5077130;28;20024;-83
2022/09/23 11:46:14;;;;;;;4.05;2.10;;;19.50;93.20;;;;;;5072564;28;19949;-82
2022/09/23 11:48:50;;;;;;;4.93;1.95;;;19.40;91.90;;;;;;5076021;28;20091;-81
2022/09/23 11:51:16;;;;;;;4.45;2.00;;;19.40;92.00;;;;;;5087169;28;20024;-87
2022/09/23 11:53:50;;;;;;;4.25;2.17;;;19.40;92.10;;;;;;5070242;28;20036;-85
2022/09/23 11:56:31;;;;;;;5.30;2.20;;;19.40;92.40;;;;;;5064719;28;20060;-82
2022/09/23 11:59:29;;;;;;;4.25;2.13;;;19.40;92.60;;;;;;5065228;28;20028;-83
2022/09/23 12:02:03;;;;;;;4.15;1.60;;;19.50;92.50;;;;;;5056408;28;20081;-82
2022/09/23 12:04:41;;;;;;;6.25;2.40;;;22.60;93.30;;;;;;5068564;28;20024;-86
2022/09/23 12:07:07;;;;;;;6.38;2.20;;;;;;;;;;5066386;28;20057;-83
2022/09/23 12:10:06;;;;;;;4.72;2.05;;;19.60;91.50;;;;;;5088610;28;20056;-83
2022/09/23 12:12:40;;;;;;;4.47;2.17;;;19.60;91.10;;;;;;5072635;28;20085;-81
2022/09/23 12:15:38;;;;;;;3.00;1.90;;;19.60;91.40;;;;;;5066966;28;20035;-84
2022/09/23 12:18:20;;;;;;;3.13;1.77;;;19.70;91.40;;;;;;5083989;28;20035;-82
2022/09/23 12:21:15;;;;;;;5.82;2.25;;;19.90;92.00;;;;;;5090736;28;20040;-82
2022/09/23 12:24:19;;;;;;;4.72;1.75;;;19.90;92.00;;;;;;5069893;28;20021;-82
2022/09/23 12:26:52;;;;;;;4.72;1.60;;;19.90;91.40;;;;;;5085421;28;20591;-83
2022/09/23 12:29:18;;;;;;;4.47;1.90;;;19.80;91.00;;;;;;5077447;28;20524;-83
2022/09/23 12:31:45;;;;;;;4.47;1.80;;;19.70;91.60;;;;;;5073050;28;20143;-80
2022/09/23 12:34:47;;;;;;;4.82;2.13;;;19.60;91.60;;;;;;5073589;28;20035;-84
2022/09/23 12:37:34;;;;;;;4.57;2.13;;;19.60;91.50;;;;;;5083856;28;20034;-83
2022/09/23 12:40:32;;;;;;;4.68;2.00;;;19.60;91.80;;;;;;5083165;28;20024;-84
2022/09/23 12:43:00;;;;;;;4.38;2.50;;;19.50;90.90;;;;;;5091592;28;20031;-85
2022/09/23 12:45:30;;;;;;;5.10;2.13;;;19.60;91.00;;;;;;5086136;28;20101;-83
2022/09/23 12:47:57;;;;;;;3.92;2.30;;;19.60;91.00;;;;;;5071560;28;20028;-84
2022/09/23 12:50:54;;;;;;;2.85;1.90;;;19.60;91.20;;;;;;5087260;28;20028;-85
2022/09/23 12:53:32;;;;;;;7.47;1.83;;;19.60;91.20;;;;;;5091621;28;20381;-86
2022/09/23 12:56:14;;;;;;;6.85;2.00;;;19.60;91.50;;;;;;5082736;28;20027;-85
2022/09/23 12:58:42;;;;;;;4.47;1.98;;;19.60;91.30;;;;;;5088180;28;20029;-84
2022/09/23 13:01:14;;;;;;;4.50;2.10;;;19.70;91.40;;;;;;5093584;28;20504;-82
2022/09/23 13:07:07;;;;;;;5.10;2.20;;;20.10;91.20;;;;;;5095074;28;20051;-80
2022/09/23 13:09:44;;;;;;;5.13;1.73;;;19.90;90.90;;;;;;5095954;28;20028;-81
2022/09/23 13:12:31;;;;;;;3.83;2.20;;;20.00;91.20;;;;;;5098071;28;20049;-83
2022/09/23 13:15:02;;;;;;;5.13;1.80;;;20.20;90.70;;;;;;5070875;28;20470;-81
2022/09/23 13:17:35;;;;;;;3.58;2.25;;;20.70;89.90;;;;;;5077256;28;20030;-82
2022/09/23 13:20:19;;;;;;;5.22;1.85;;;20.70;90.00;;;;;;5078616;28;20020;-85
2022/09/23 13:22:48;;;;;;;3.95;2.20;;;20.70;89.30;;;;;;5078740;28;20074;-83
2022/09/23 13:25:24;;;;;;;6.43;2.58;;;20.70;90.10;;;;;;5075652;28;20028;-81
2022/09/23 13:27:53;;;;;;;5.82;2.10;;;20.50;90.40;;;;;;5096187;28;20034;-84
2022/09/23 13:30:22;;;;;;;5.50;2.15;;;20.40;90.40;;;;;;5073568;28;20029;-84
2022/09/23 13:33:04;;;;;;;4.03;2.20;;;20.30;90.40;;;;;;5094051;28;20052;-83
2022/09/23 13:35:38;;;;;;;3.80;1.80;;;20.10;90.10;;;;;;5070829;28;20038;-86
2022/09/23 13:38:24;;;;;;;3.72;1.88;;;19.80;89.80;;;;;;5079268;28;20088;-85
2022/09/23 13:41:06;;;;;;;3.55;1.90;;;19.60;89.90;;;;;;5094726;28;20378;-85
2022/09/23 13:43:39;;;;;;;4.55;1.80;;;19.60;90.20;;;;;;5070717;28;20498;-86
2022/09/23 13:46:17;;;;;;;4.07;1.52;;;19.50;89.00;;;;;;5072477;28;20108;-84
2022/09/23 13:48:45;;;;;;;2.58;1.30;;;19.40;89.20;;;;;;5082051;28;20017;-81
2022/09/23 13:51:17;;;;;;;2.83;1.83;;;19.40;89.00;;;;;;5078997;28;20389;-83
2022/09/23 13:53:54;;;;;;;11.57;6.75;;;19.40;90.50;;;;;;5082534;28;20020;-83
2022/09/23 13:56:20;;;;;;;5.05;3.10;;;19.40;90.70;;;;;;5084578;28;20035;-86
2022/09/23 13:58:47;;;;;;;3.63;1.90;;;19.30;89.40;;;;;;5097069;28;20158;-85
2022/09/23 14:01:31;;;;;;;2.97;1.52;;;20.00;90.20;;;;;;5094074;28;20024;-80
2022/09/23 14:03:57;;;;;;;4.15;1.70;;;;;;;;;;5080882;28;20530;-82
2022/09/23 14:06:24;;;;;;;4.30;1.70;;;19.20;90.10;;;;;;5100897;28;20024;-82
2022/09/23 14:08:50;;;;;;;4.18;1.50;;;19.30;89.90;;;;;;5096581;28;20020;-82
2022/09/23 14:11:29;;;;;;;4.85;1.40;;;19.20;88.60;;;;;;5094065;28;20527;-85